createdAt,value
2019-03-26T00:00:45.334Z,3.03
2019-03-26T00:03:15.649Z,3.50
2019-03-26T00:05:44.907Z,3.70
2019-03-26T00:08:14.377Z,3.73
2019-03-26T00:10:43.677Z,3.55
2019-03-26T00:13:13.110Z,3.67
2019-03-26T00:15:42.863Z,3.87
2019-03-26T00:18:12.319Z,3.30
2019-03-26T00:20:41.726Z,4.43
2019-03-26T00:23:11.570Z,4.00
2019-03-26T00:25:41.038Z,3.93
2019-03-26T00:28:10.442Z,3.97
2019-03-26T00:30:39.929Z,4.10
2019-03-26T00:33:09.146Z,4.07
2019-03-26T00:35:38.709Z,3.87
2019-03-26T00:38:08.293Z,3.70
2019-03-26T00:40:40.085Z,3.90
2019-03-26T00:43:10.907Z,3.37
2019-03-26T00:45:41.165Z,3.17
2019-03-26T00:48:10.676Z,3.83
2019-03-26T00:50:39.949Z,3.70
2019-03-26T00:53:09.549Z,4.43
2019-03-26T00:55:38.793Z,3.50
2019-03-26T00:58:08.277Z,4.23
2019-03-26T01:00:43.262Z,3.57
2019-03-26T01:03:13.040Z,3.08
2019-03-26T01:05:42.629Z,3.70
2019-03-26T01:08:12.779Z,3.50
2019-03-26T01:10:45.157Z,4.87
2019-03-26T01:13:14.718Z,3.50
2019-03-26T01:15:43.930Z,3.67
2019-03-26T01:18:13.409Z,4.20
2019-03-26T01:20:42.804Z,4.40
2019-03-26T01:23:12.368Z,3.90
2019-03-26T01:25:41.615Z,4.73
2019-03-26T01:28:10.831Z,3.93
2019-03-26T01:30:40.073Z,3.47
2019-03-26T01:33:09.537Z,4.37
2019-03-26T01:35:38.932Z,3.83
2019-03-26T01:38:08.280Z,4.33
2019-03-26T01:40:37.768Z,4.37
2019-03-26T01:43:07.017Z,4.03
2019-03-26T01:45:36.254Z,3.63
2019-03-26T01:48:05.538Z,3.93
2019-03-26T01:50:37.062Z,3.53
2019-03-26T01:53:06.312Z,4.07
2019-03-26T01:55:35.673Z,4.03
2019-03-26T01:58:04.894Z,3.47
2019-03-26T02:00:37.645Z,4.00
2019-03-26T02:03:06.845Z,4.10
2019-03-26T02:05:36.044Z,3.57
2019-03-26T02:08:05.965Z,4.43
2019-03-26T02:10:35.254Z,3.93
2019-03-26T02:13:04.476Z,4.13
2019-03-26T02:15:34.218Z,4.00
2019-03-26T02:18:03.692Z,3.80
2019-03-26T02:20:33.245Z,4.00
2019-03-26T02:23:02.664Z,4.33
2019-03-26T02:25:31.893Z,3.60
2019-03-26T02:28:01.366Z,4.20
2019-03-26T02:30:30.603Z,4.27
2019-03-26T02:33:00.091Z,3.83
2019-03-26T02:35:29.523Z,3.87
2019-03-26T02:37:58.931Z,3.73
2019-03-26T02:40:28.354Z,4.90
2019-03-26T02:42:57.915Z,3.57
2019-03-26T02:45:27.140Z,3.53
2019-03-26T02:47:56.371Z,3.60
2019-03-26T02:50:25.811Z,4.40
2019-03-26T02:52:55.163Z,4.03
2019-03-26T02:55:24.631Z,3.40
2019-03-26T02:57:53.837Z,3.50
2019-03-26T03:00:23.136Z,4.27
2019-03-26T03:02:52.921Z,3.10
2019-03-26T03:05:35.253Z,3.93
2019-03-26T03:07:53.365Z,4.47
2019-03-26T03:10:24.511Z,4.03
2019-03-26T03:12:54.688Z,3.30
2019-03-26T03:15:24.923Z,3.90
2019-03-26T03:17:54.377Z,3.17
2019-03-26T03:20:23.657Z,3.23
2019-03-26T03:22:52.907Z,3.17
2019-03-26T03:25:22.807Z,4.07
2019-03-26T03:27:52.059Z,3.30
2019-03-26T03:30:21.458Z,3.53
2019-03-26T03:32:50.671Z,2.97
2019-03-26T03:35:20.137Z,3.10
2019-03-26T03:37:49.416Z,3.03
2019-03-26T03:40:18.734Z,3.30
2019-03-26T03:42:47.959Z,3.20
2019-03-26T03:45:27.083Z,2.83
2019-03-26T03:47:56.873Z,2.93
2019-03-26T03:50:29.504Z,3.23
2019-03-26T03:53:00.351Z,2.90
2019-03-26T03:55:30.651Z,2.80
2019-03-26T03:58:01.902Z,3.30
2019-03-26T04:00:35.919Z,2.23
2019-03-26T04:03:06.185Z,2.37
2019-03-26T04:05:36.103Z,2.10
2019-03-26T04:08:05.617Z,2.23
2019-03-26T04:10:34.968Z,2.77
2019-03-26T04:13:05.194Z,2.40
2019-03-26T04:15:35.398Z,2.70
2019-03-26T04:18:04.881Z,2.27
2019-03-26T04:20:34.349Z,2.43
2019-03-26T04:23:04.937Z,2.50
2019-03-26T04:25:34.770Z,2.67
2019-03-26T04:28:04.160Z,2.27
2019-03-26T04:30:34.520Z,2.80
2019-03-26T04:33:04.528Z,2.23
2019-03-26T04:35:34.118Z,2.67
2019-03-26T04:38:03.452Z,2.47
2019-03-26T04:40:32.802Z,3.03
2019-03-26T04:43:02.016Z,2.53
2019-03-26T04:45:31.356Z,2.17
2019-03-26T04:48:00.604Z,2.73
2019-03-26T04:50:29.998Z,3.17
2019-03-26T04:52:59.229Z,3.60
2019-03-26T04:55:28.937Z,2.87
2019-03-26T04:57:58.139Z,2.67
2019-03-26T05:00:28.011Z,2.87
2019-03-26T05:02:57.338Z,3.30
2019-03-26T05:05:28.149Z,3.17
2019-03-26T05:07:57.650Z,3.23
2019-03-26T05:10:27.014Z,3.20
2019-03-26T05:12:58.032Z,4.27
2019-03-26T05:15:27.523Z,3.17
2019-03-26T05:17:57.016Z,3.30
2019-03-26T05:20:26.336Z,3.63
2019-03-26T05:22:55.883Z,4.20
2019-03-26T05:25:25.114Z,3.30
2019-03-26T05:27:54.371Z,3.87
2019-03-26T05:30:24.473Z,3.93
2019-03-26T05:32:54.255Z,3.63
2019-03-26T05:35:23.498Z,3.77
2019-03-26T05:37:53.013Z,4.00
2019-03-26T05:40:22.248Z,3.80
2019-03-26T05:42:51.904Z,4.67
2019-03-26T05:45:21.245Z,4.57
2019-03-26T05:47:50.488Z,4.57
2019-03-26T05:50:20.045Z,4.93
2019-03-26T05:52:49.388Z,3.95
2019-03-26T05:55:18.594Z,5.13
2019-03-26T05:57:49.448Z,4.33
2019-03-26T06:00:22.078Z,4.97
2019-03-26T06:02:51.343Z,5.60
2019-03-26T06:05:20.730Z,4.70
2019-03-26T06:07:50.406Z,5.03
2019-03-26T06:10:19.670Z,4.80
2019-03-26T06:12:50.261Z,5.00
2019-03-26T06:15:19.718Z,4.40
2019-03-26T06:17:50.180Z,5.57
2019-03-26T06:20:19.486Z,5.70
2019-03-26T06:22:49.041Z,4.30
2019-03-26T06:25:18.646Z,5.03
2019-03-26T06:28:14.831Z,5.00
2019-03-26T06:30:44.412Z,5.60
2019-03-26T06:33:13.702Z,3.73
2019-03-26T06:35:43.343Z,4.63
2019-03-26T06:38:12.613Z,5.30
2019-03-26T06:40:41.841Z,5.00
2019-03-26T06:43:11.114Z,5.70
2019-03-26T06:45:40.334Z,5.00
2019-03-26T06:48:09.841Z,3.90
2019-03-26T06:50:39.268Z,5.40
2019-03-26T06:53:08.530Z,4.33
2019-03-26T06:55:37.865Z,3.97
2019-03-26T06:58:07.300Z,3.73
2019-03-26T07:00:36.632Z,4.47
2019-03-26T07:03:07.620Z,4.07
2019-03-26T07:05:37.961Z,6.20
2019-03-26T07:08:07.519Z,3.37
2019-03-26T07:10:37.012Z,3.63
2019-03-26T07:13:06.416Z,2.97
2019-03-26T07:15:35.909Z,3.13
2019-03-26T07:18:05.212Z,2.87
2019-03-26T07:20:35.100Z,3.15
2019-03-26T07:23:04.526Z,4.23
2019-03-26T07:25:33.999Z,2.23
2019-03-26T07:28:03.723Z,3.50
2019-03-26T07:30:44.845Z,2.90
2019-03-26T07:33:14.219Z,2.83
2019-03-26T07:35:43.537Z,3.03
2019-03-26T07:38:12.831Z,3.30
2019-03-26T07:40:42.090Z,2.53
2019-03-26T07:43:11.324Z,2.30
2019-03-26T07:45:40.703Z,2.30
2019-03-26T07:48:10.425Z,2.02
2019-03-26T07:50:39.818Z,2.42
2019-03-26T07:53:09.133Z,2.60
2019-03-26T07:55:38.705Z,2.27
2019-03-26T07:58:08.239Z,1.65
2019-03-26T08:00:38.686Z,2.55
2019-03-26T08:03:09.742Z,3.00
2019-03-26T08:05:39.215Z,2.55
2019-03-26T08:08:08.714Z,2.10
2019-03-26T08:10:38.061Z,2.00
2019-03-26T08:13:08.031Z,2.20
2019-03-26T08:15:37.322Z,2.00
2019-03-26T08:18:06.679Z,2.37
2019-03-26T08:20:35.974Z,2.12
2019-03-26T08:23:05.434Z,2.12
2019-03-26T08:25:34.894Z,2.30
2019-03-26T08:28:05.177Z,2.33
2019-03-26T08:30:34.806Z,1.95
2019-03-26T08:33:04.303Z,1.50
2019-03-26T08:35:33.622Z,2.00
2019-03-26T08:38:12.554Z,1.72
2019-03-26T08:40:33.845Z,1.70
2019-03-26T08:43:06.139Z,2.10
2019-03-26T08:45:35.596Z,1.50
2019-03-26T08:48:05.446Z,1.30
2019-03-26T08:50:34.917Z,1.50
2019-03-26T08:53:04.251Z,2.35
2019-03-26T08:55:33.563Z,2.55
2019-03-26T08:58:02.886Z,1.50
2019-03-26T09:00:32.351Z,1.12
2019-03-26T09:03:01.723Z,1.25
2019-03-26T09:05:31.246Z,1.67
2019-03-26T09:08:01.437Z,1.60
2019-03-26T09:10:32.599Z,1.25
2019-03-26T09:13:01.874Z,1.65
2019-03-26T09:15:31.454Z,1.75
2019-03-26T09:18:00.795Z,1.52
2019-03-26T09:20:30.257Z,2.02
2019-03-26T09:22:59.499Z,1.82
2019-03-26T09:25:29.262Z,2.40
2019-03-26T09:27:58.548Z,1.43
2019-03-26T09:30:27.792Z,1.22
2019-03-26T09:32:57.162Z,1.50
2019-03-26T09:35:26.724Z,1.20
2019-03-26T09:37:56.016Z,1.82
2019-03-26T09:40:25.650Z,1.90
2019-03-26T09:42:54.871Z,1.10
2019-03-26T09:45:24.206Z,1.45
2019-03-26T09:47:53.590Z,1.03
2019-03-26T09:50:36.472Z,2.12
2019-03-26T09:53:06.512Z,1.98
2019-03-26T09:55:36.966Z,1.37
2019-03-26T09:58:10.840Z,1.50
2019-03-26T10:00:41.161Z,1.96
2019-03-26T10:03:10.868Z,1.83
2019-03-26T10:05:40.167Z,1.40
2019-03-26T10:08:09.762Z,2.03
2019-03-26T10:10:39.262Z,1.53
2019-03-26T10:13:08.990Z,1.60
2019-03-26T10:15:38.530Z,1.40
2019-03-26T10:18:08.062Z,1.85
2019-03-26T10:20:37.628Z,1.63
2019-03-26T10:23:07.055Z,1.52
2019-03-26T10:25:36.293Z,1.55
2019-03-26T10:28:06.700Z,1.52
2019-03-26T10:30:37.631Z,1.40
2019-03-26T10:33:08.516Z,1.55
2019-03-26T10:35:37.828Z,1.92
2019-03-26T10:38:07.275Z,1.30
2019-03-26T10:40:39.921Z,1.42
2019-03-26T10:43:09.310Z,1.20
2019-03-26T10:45:38.534Z,1.20
2019-03-26T10:48:07.999Z,1.27
2019-03-26T10:50:37.302Z,1.43
2019-03-26T10:53:07.542Z,1.57
2019-03-26T10:55:37.626Z,2.10
2019-03-26T10:58:06.993Z,1.60
2019-03-26T11:00:36.776Z,1.17
2019-03-26T11:03:06.244Z,1.33
2019-03-26T11:05:35.589Z,1.37
2019-03-26T11:08:05.310Z,1.55
2019-03-26T11:10:34.757Z,1.40
2019-03-26T11:13:04.173Z,1.17
2019-03-26T11:15:33.538Z,1.67
2019-03-26T11:18:02.815Z,1.37
2019-03-26T11:20:32.067Z,1.82
2019-03-26T11:23:01.427Z,1.60
2019-03-26T11:25:30.738Z,1.95
2019-03-26T11:28:00.384Z,1.53
2019-03-26T11:30:30.129Z,2.23
2019-03-26T11:32:59.636Z,1.42
2019-03-26T11:35:28.947Z,1.12
2019-03-26T11:37:58.150Z,1.80
2019-03-26T11:40:27.510Z,1.30
2019-03-26T11:42:56.960Z,1.53
2019-03-26T11:45:26.202Z,2.30
2019-03-26T11:47:55.434Z,1.50
2019-03-26T11:50:24.833Z,1.70
2019-03-26T11:52:54.077Z,1.53
2019-03-26T11:55:23.439Z,1.57
2019-03-26T11:57:52.758Z,1.43
2019-03-26T12:00:27.603Z,1.80
2019-03-26T12:02:56.865Z,1.60
2019-03-26T12:05:26.489Z,2.07
2019-03-26T12:07:56.636Z,2.03
2019-03-26T12:10:26.898Z,2.23
2019-03-26T12:12:56.686Z,1.73
2019-03-26T12:15:25.929Z,1.77
2019-03-26T12:17:55.193Z,1.93
2019-03-26T12:20:24.478Z,1.60
2019-03-26T12:22:53.954Z,2.10
2019-03-26T12:25:23.167Z,1.80
2019-03-26T12:27:52.909Z,1.93
2019-03-26T12:30:35.847Z,1.73
2019-03-26T12:33:07.722Z,2.13
2019-03-26T12:35:37.054Z,1.73
2019-03-26T12:38:20.628Z,1.37
2019-03-26T12:40:50.212Z,1.53
2019-03-26T12:43:19.601Z,2.03
2019-03-26T12:45:49.214Z,2.40
2019-03-26T12:48:18.467Z,2.30
2019-03-26T12:50:47.898Z,1.63
2019-03-26T12:53:17.468Z,1.73
2019-03-26T12:55:47.013Z,1.53
2019-03-26T12:58:16.306Z,1.40
2019-03-26T13:00:45.582Z,1.35
2019-03-26T13:03:14.829Z,2.00
2019-03-26T13:05:44.078Z,1.67
2019-03-26T13:08:13.599Z,2.10
2019-03-26T13:10:52.926Z,1.90
2019-03-26T13:13:13.795Z,1.50
2019-03-26T13:15:43.623Z,1.57
2019-03-26T13:18:12.928Z,1.50
2019-03-26T13:20:42.173Z,0.97
2019-03-26T13:23:11.742Z,1.23
2019-03-26T13:25:41.248Z,1.87
2019-03-26T13:28:10.762Z,1.67
2019-03-26T13:30:40.216Z,1.00
2019-03-26T13:33:09.685Z,1.10
2019-03-26T13:35:39.906Z,1.98
2019-03-26T13:38:09.497Z,0.93
2019-03-26T13:40:38.819Z,1.80
2019-03-26T13:43:08.492Z,1.40
2019-03-26T13:45:37.819Z,2.30
2019-03-26T13:48:07.473Z,1.00
2019-03-26T13:50:36.799Z,1.47
2019-03-26T13:53:08.151Z,1.33
2019-03-26T13:55:37.610Z,1.70
2019-03-26T13:58:06.842Z,1.67
2019-03-26T14:00:40.863Z,1.43
2019-03-26T14:03:10.387Z,1.97
2019-03-26T14:05:39.673Z,1.30
2019-03-26T14:08:09.296Z,1.33
2019-03-26T14:10:41.044Z,1.83
2019-03-26T14:13:09.692Z,1.37
2019-03-26T14:15:39.145Z,0.77
2019-03-26T14:18:08.396Z,1.47
2019-03-26T14:20:37.898Z,1.20
2019-03-26T14:23:07.169Z,1.20
2019-03-26T14:25:36.670Z,1.13
2019-03-26T14:28:06.221Z,1.23
2019-03-26T14:30:40.318Z,1.00
2019-03-26T14:33:10.309Z,1.40
2019-03-26T14:35:40.107Z,1.47
2019-03-26T14:38:09.757Z,1.43
2019-03-26T14:40:39.344Z,1.00
2019-03-26T14:43:08.855Z,1.20
2019-03-26T14:45:42.048Z,1.73
2019-03-26T14:48:10.010Z,1.43
2019-03-26T14:50:39.445Z,1.70
2019-03-26T14:53:08.805Z,1.90
2019-03-26T14:55:38.311Z,1.47
2019-03-26T14:58:07.542Z,2.10
2019-03-26T15:00:37.161Z,1.80
2019-03-26T15:03:06.876Z,1.50
2019-03-26T15:05:36.113Z,2.33
2019-03-26T15:08:05.681Z,2.10
2019-03-26T15:10:34.908Z,2.40
2019-03-26T15:13:05.132Z,1.60
2019-03-26T15:15:36.554Z,3.60
2019-03-26T15:18:06.084Z,2.30
2019-03-26T15:20:35.617Z,3.07
2019-03-26T15:23:05.180Z,2.07
2019-03-26T15:25:34.377Z,2.33
2019-03-26T15:28:03.604Z,1.60
2019-03-26T15:30:33.204Z,1.40
2019-03-26T15:33:02.529Z,1.50
2019-03-26T15:35:31.773Z,2.80
2019-03-26T15:38:01.597Z,1.27
2019-03-26T15:40:32.123Z,1.57
2019-03-26T15:43:01.768Z,1.53
2019-03-26T15:45:31.378Z,1.80
2019-03-26T15:48:00.766Z,1.30
2019-03-26T15:50:48.619Z,2.13
2019-03-26T15:53:17.877Z,1.63
2019-03-26T15:55:47.508Z,1.50
2019-03-26T15:58:17.188Z,1.23
2019-03-26T16:00:46.490Z,2.53
2019-03-26T16:03:15.761Z,1.17
2019-03-26T16:05:45.038Z,1.40
2019-03-26T16:08:14.659Z,1.50
2019-03-26T16:10:43.942Z,1.83
2019-03-26T16:13:13.441Z,1.30
2019-03-26T16:15:45.287Z,1.57
2019-03-26T16:18:15.616Z,1.40
2019-03-26T16:21:07.411Z,1.52
2019-03-26T16:23:36.615Z,1.50
2019-03-26T16:26:05.903Z,1.33
2019-03-26T16:28:35.150Z,1.20
2019-03-26T16:31:04.419Z,0.90
2019-03-26T16:33:33.984Z,2.80
2019-03-26T16:36:03.356Z,1.80
2019-03-26T16:38:32.634Z,1.10
2019-03-26T16:41:02.222Z,1.50
2019-03-26T16:43:32.689Z,1.33
2019-03-26T16:46:02.639Z,1.13
2019-03-26T16:48:32.785Z,1.53
2019-03-26T16:51:02.291Z,1.00
2019-03-26T16:53:31.561Z,1.07
2019-03-26T16:56:00.982Z,0.77
2019-03-26T16:58:30.552Z,1.63
2019-03-26T17:00:59.810Z,1.33
2019-03-26T17:03:31.600Z,1.23
2019-03-26T17:06:00.275Z,1.30
2019-03-26T17:08:29.552Z,2.47
2019-03-26T17:10:58.742Z,1.17
2019-03-26T17:13:30.767Z,2.60
2019-03-26T17:16:00.319Z,1.30
2019-03-26T17:18:29.794Z,2.93
2019-03-26T17:20:59.231Z,2.87
2019-03-26T17:23:28.462Z,1.67
2019-03-26T17:25:57.809Z,1.13
2019-03-26T17:28:27.225Z,1.47
2019-03-26T17:30:56.697Z,1.57
2019-03-26T17:33:28.914Z,2.17
2019-03-26T17:35:57.015Z,2.03
2019-03-26T17:38:26.252Z,1.60
2019-03-26T17:40:55.900Z,1.30
2019-03-26T17:43:25.481Z,1.33
2019-03-26T17:45:55.818Z,1.80
2019-03-26T17:48:25.406Z,1.77
2019-03-26T17:50:55.007Z,1.73
2019-03-26T17:53:24.230Z,1.60
2019-03-26T17:55:54.028Z,1.73
2019-03-26T17:58:23.643Z,1.47
2019-03-26T18:00:53.256Z,1.53
2019-03-26T18:03:26.703Z,1.30
2019-03-26T18:05:54.935Z,1.33
2019-03-26T18:08:24.454Z,1.93
2019-03-26T18:10:53.957Z,1.77
2019-03-26T18:13:23.483Z,4.17
2019-03-26T18:15:53.023Z,4.17
2019-03-26T18:18:22.248Z,2.40
2019-03-26T18:20:51.827Z,2.73
2019-03-26T18:23:21.152Z,6.47
2019-03-26T18:25:50.512Z,3.23
2019-03-26T18:28:19.785Z,3.90
2019-03-26T18:30:49.037Z,4.50
2019-03-26T18:33:18.377Z,2.63
2019-03-26T18:35:47.917Z,2.97
2019-03-26T18:38:17.199Z,3.40
2019-03-26T18:40:46.741Z,1.97
2019-03-26T18:43:16.123Z,1.90
2019-03-26T18:45:45.406Z,2.00
2019-03-26T18:48:15.695Z,1.83
2019-03-26T18:50:45.186Z,2.43
2019-03-26T18:53:14.454Z,2.53
2019-03-26T18:55:43.703Z,1.77
2019-03-26T18:58:12.971Z,1.13
2019-03-26T19:00:42.283Z,2.10
2019-03-26T19:03:11.588Z,2.73
2019-03-26T19:05:40.932Z,2.63
2019-03-26T19:08:10.770Z,2.90
2019-03-26T19:10:40.234Z,1.70
2019-03-26T19:13:19.276Z,2.27
2019-03-26T19:15:51.624Z,2.80
2019-03-26T19:18:21.311Z,2.90
2019-03-26T19:21:02.397Z,2.47
2019-03-26T19:23:28.829Z,2.40
2019-03-26T19:25:58.116Z,2.80
2019-03-26T19:28:27.580Z,1.80
2019-03-26T19:30:57.392Z,2.70
2019-03-26T19:33:26.637Z,2.30
2019-03-26T19:35:55.869Z,3.33
2019-03-26T19:38:25.363Z,2.60
2019-03-26T19:40:54.659Z,3.03
2019-03-26T19:43:23.864Z,3.03
2019-03-26T19:45:53.228Z,2.67
2019-03-26T19:48:22.474Z,2.60
2019-03-26T19:50:52.738Z,2.40
2019-03-26T19:53:22.212Z,3.13
2019-03-26T19:55:51.787Z,2.53
2019-03-26T19:58:21.081Z,2.00
2019-03-26T20:00:50.380Z,2.53
2019-03-26T20:03:19.810Z,2.23
2019-03-26T20:05:49.031Z,3.27
2019-03-26T20:08:18.663Z,2.60
2019-03-26T20:10:48.654Z,3.27
2019-03-26T20:13:24.243Z,4.40
2019-03-26T20:15:49.784Z,2.90
2019-03-26T20:18:19.082Z,2.17
2019-03-26T20:20:48.379Z,1.87
2019-03-26T20:23:17.954Z,4.60
2019-03-26T20:25:47.190Z,2.23
2019-03-26T20:28:16.898Z,2.33
2019-03-26T20:30:46.160Z,2.80
2019-03-26T20:33:15.436Z,2.80
2019-03-26T20:35:45.579Z,2.27
2019-03-26T20:38:15.186Z,2.00
2019-03-26T20:40:44.413Z,2.00
2019-03-26T20:43:13.694Z,2.27
2019-03-26T20:45:43.014Z,2.47
2019-03-26T20:48:12.262Z,2.33
2019-03-26T20:50:41.601Z,1.83
2019-03-26T20:53:11.582Z,2.27
2019-03-26T20:55:53.381Z,2.10
2019-03-26T20:58:12.179Z,1.63
2019-03-26T21:00:42.487Z,1.87
2019-03-26T21:03:11.959Z,1.57
2019-03-26T21:05:41.402Z,2.70
2019-03-26T21:08:11.045Z,2.53
2019-03-26T21:10:40.378Z,2.70
2019-03-26T21:13:09.598Z,2.57
2019-03-26T21:15:38.959Z,2.80
2019-03-26T21:18:08.401Z,2.13
2019-03-26T21:20:37.642Z,2.17
2019-03-26T21:23:07.041Z,2.13
2019-03-26T21:25:37.070Z,2.73
2019-03-26T21:28:06.666Z,2.10
2019-03-26T21:30:36.288Z,2.00
2019-03-26T21:33:05.529Z,1.90
2019-03-26T21:35:34.748Z,1.67
2019-03-26T21:38:04.017Z,2.20
2019-03-26T21:40:33.217Z,1.73
2019-03-26T21:43:04.562Z,2.07
2019-03-26T21:45:35.525Z,1.63
2019-03-26T21:48:05.872Z,1.40
2019-03-26T21:50:35.325Z,1.80
2019-03-26T21:53:04.667Z,1.87
2019-03-26T21:55:34.927Z,1.80
2019-03-26T21:58:04.157Z,2.20
2019-03-26T22:00:33.410Z,1.67
2019-03-26T22:03:02.643Z,1.70
2019-03-26T22:05:31.877Z,1.77
2019-03-26T22:08:01.177Z,2.43
2019-03-26T22:10:30.518Z,1.70
2019-03-26T22:12:59.806Z,1.97
2019-03-26T22:15:29.094Z,1.77
2019-03-26T22:17:58.622Z,2.33
2019-03-26T22:20:27.920Z,2.27
2019-03-26T22:22:57.356Z,1.90
2019-03-26T22:25:26.622Z,1.90
2019-03-26T22:27:56.012Z,2.37
2019-03-26T22:30:25.826Z,1.97
2019-03-26T22:32:55.509Z,2.00
2019-03-26T22:35:25.006Z,1.50
2019-03-26T22:37:54.502Z,1.67
2019-03-26T22:40:24.021Z,1.80
2019-03-26T22:42:53.263Z,2.30
2019-03-26T22:45:22.862Z,1.85
2019-03-26T22:47:52.110Z,1.77
2019-03-26T22:50:21.623Z,1.90
2019-03-26T22:52:51.208Z,1.83
2019-03-26T22:55:20.738Z,1.83
2019-03-26T22:57:51.252Z,1.63
2019-03-26T23:00:21.692Z,2.37
2019-03-26T23:02:50.931Z,2.17
2019-03-26T23:05:22.186Z,2.00
2019-03-26T23:07:51.485Z,1.93
2019-03-26T23:10:21.074Z,2.23
2019-03-26T23:12:50.380Z,1.87
2019-03-26T23:15:22.305Z,2.07
2019-03-26T23:17:51.673Z,1.87
2019-03-26T23:20:20.979Z,2.00
2019-03-26T23:22:50.318Z,1.83
2019-03-26T23:25:19.553Z,2.20
2019-03-26T23:27:49.045Z,2.00
2019-03-26T23:30:19.274Z,2.03
2019-03-26T23:32:48.911Z,2.03
2019-03-26T23:35:18.115Z,2.43
2019-03-26T23:37:48.270Z,1.67
2019-03-26T23:40:17.731Z,2.17
2019-03-26T23:42:47.713Z,2.27
2019-03-26T23:45:17.216Z,2.00
2019-03-26T23:47:46.469Z,2.17
2019-03-26T23:50:15.760Z,1.97
2019-03-26T23:52:45.018Z,1.80
2019-03-26T23:55:14.330Z,1.70
2019-03-26T23:57:43.530Z,2.23
